createdAt,value
2023-05-24T00:02:33.883Z,93.58
2023-05-24T00:07:41.533Z,94.25
2023-05-24T00:12:49.408Z,94.95
2023-05-24T00:17:57.580Z,95.66
2023-05-24T00:23:05.313Z,95.97
2023-05-24T00:28:13.976Z,96.65
2023-05-24T00:33:23.721Z,96.86
2023-05-24T00:38:31.587Z,97.31
2023-05-24T00:43:40.110Z,97.19
2023-05-24T00:48:50.109Z,96.99
2023-05-24T00:58:06.471Z,97.35
2023-05-24T01:03:14.842Z,97.40
2023-05-24T01:08:37.336Z,97.12
2023-05-24T01:13:50.458Z,97.29
2023-05-24T01:19:04.255Z,97.51
2023-05-24T01:24:19.816Z,97.69
2023-05-24T01:29:30.639Z,97.80
2023-05-24T01:34:38.774Z,97.97
2023-05-24T01:39:47.079Z,97.93
2023-05-24T01:45:03.573Z,98.27
2023-05-24T01:50:30.264Z,98.39
2023-05-24T01:55:39.175Z,98.62
2023-05-24T02:00:47.984Z,98.93
2023-05-24T02:05:55.816Z,99.04
2023-05-24T02:11:04.434Z,99.41
2023-05-24T02:16:12.545Z,99.75
2023-05-24T02:21:20.867Z,99.97
2023-05-24T02:26:28.873Z,100.00
2023-05-24T02:31:37.138Z,100.00
2023-05-24T02:36:46.221Z,100.00
2023-05-24T02:41:53.659Z,100.00
2023-05-24T02:47:02.073Z,100.00
2023-05-24T02:52:10.254Z,100.00
2023-05-24T02:57:18.413Z,100.00
2023-05-24T03:02:28.746Z,100.00
2023-05-24T03:07:36.592Z,100.00
2023-05-24T03:12:44.949Z,100.00
2023-05-24T03:17:52.393Z,100.00
2023-05-24T03:23:00.442Z,100.00
2023-05-24T03:28:08.367Z,100.00
2023-05-24T03:33:15.963Z,100.00
2023-05-24T03:38:24.099Z,100.00
2023-05-24T03:43:31.680Z,100.00
2023-05-24T03:48:39.222Z,100.00
2023-05-24T03:53:47.634Z,100.00
2023-05-24T03:58:55.460Z,100.00
2023-05-24T04:04:03.823Z,100.00
2023-05-24T04:09:11.903Z,99.80
2023-05-24T04:14:19.535Z,99.21
2023-05-24T04:19:27.845Z,99.06
2023-05-24T04:24:35.217Z,98.56
2023-05-24T04:29:46.128Z,98.13
2023-05-24T04:34:54.174Z,97.78
2023-05-24T04:40:04.553Z,97.55
2023-05-24T04:45:15.788Z,97.85
2023-05-24T04:50:24.558Z,97.66
2023-05-24T04:55:33.508Z,97.46
2023-05-24T05:00:41.242Z,97.87
2023-05-24T05:05:49.307Z,98.30
2023-05-24T05:10:57.072Z,98.55
2023-05-24T05:16:05.819Z,98.65
2023-05-24T05:21:13.813Z,98.79
2023-05-24T05:26:22.705Z,98.70
2023-05-24T05:31:31.477Z,98.74
2023-05-24T05:36:41.240Z,98.51
2023-05-24T05:41:49.383Z,98.33
2023-05-24T05:46:56.858Z,98.54
2023-05-24T05:52:04.672Z,98.42
2023-05-24T05:57:12.427Z,98.41
2023-05-24T06:02:23.094Z,97.80
2023-05-24T06:07:30.965Z,97.23
2023-05-24T06:12:39.318Z,97.24
2023-05-24T06:17:49.310Z,96.72
2023-05-24T06:22:57.549Z,96.92
2023-05-24T06:28:05.725Z,96.52
2023-05-24T06:33:13.487Z,95.85
2023-05-24T06:38:21.843Z,95.50
2023-05-24T06:43:29.397Z,94.90
2023-05-24T06:48:37.936Z,95.06
2023-05-24T06:53:46.192Z,95.23
2023-05-24T06:58:54.196Z,94.99
2023-05-24T07:04:01.816Z,94.47
2023-05-24T07:09:11.564Z,94.30
2023-05-24T07:14:19.404Z,93.79
2023-05-24T07:19:29.835Z,94.14
2023-05-24T07:24:37.740Z,93.93
2023-05-24T07:29:46.977Z,93.95
2023-05-24T07:34:56.453Z,92.96
2023-05-24T07:40:05.792Z,93.00
2023-05-24T07:45:14.421Z,93.11
2023-05-24T07:56:10.098Z,92.83
2023-05-24T08:01:18.923Z,93.16
2023-05-24T08:06:27.979Z,93.04
2023-05-24T08:11:36.011Z,92.53
2023-05-24T08:16:43.756Z,92.23
2023-05-24T08:21:51.485Z,93.45
2023-05-24T08:26:59.331Z,94.75
2023-05-24T08:32:09.740Z,95.62
2023-05-24T08:37:19.635Z,96.93
2023-05-24T08:42:27.337Z,97.57
2023-05-24T08:47:35.704Z,98.62
2023-05-24T08:56:20.309Z,99.27
2023-05-24T09:01:31.067Z,99.12
2023-05-24T09:06:39.562Z,99.12
2023-05-24T09:11:48.989Z,99.28
2023-05-24T09:16:56.993Z,98.97
2023-05-24T09:22:04.792Z,98.47
2023-05-24T09:27:13.127Z,97.96
2023-05-24T09:32:24.757Z,97.61
2023-05-24T09:37:33.350Z,96.87
2023-05-24T09:42:40.620Z,97.75
2023-05-24T09:47:50.241Z,98.42
2023-05-24T09:52:57.920Z,98.39
2023-05-24T09:58:10.077Z,98.28
2023-05-24T10:03:22.839Z,97.71
2023-05-24T10:08:31.713Z,97.61
2023-05-24T10:13:39.295Z,97.18
2023-05-24T10:18:46.903Z,97.14
2023-05-24T10:23:58.941Z,97.44
2023-05-24T10:29:16.455Z,97.82
2023-05-24T10:34:22.535Z,97.54
2023-05-24T10:39:35.160Z,97.65
2023-05-24T10:44:42.857Z,97.61
2023-05-24T10:49:54.363Z,97.18
2023-05-24T11:04:50.838Z,97.30
2023-05-24T11:10:08.291Z,96.72
2023-05-24T11:15:25.469Z,96.96
2023-05-24T11:20:33.622Z,96.67
2023-05-24T11:25:41.565Z,96.66
2023-05-24T11:30:50.049Z,96.55
2023-05-24T11:35:58.529Z,95.85
2023-05-24T11:41:07.781Z,95.17
2023-05-24T11:46:15.388Z,94.37
2023-05-24T11:51:29.450Z,94.12
2023-05-24T11:56:36.926Z,93.45
2023-05-24T12:01:44.851Z,92.82
2023-05-24T12:06:52.695Z,92.56
2023-05-24T12:12:00.170Z,92.41
2023-05-24T12:17:16.340Z,91.46
2023-05-24T12:22:32.178Z,91.12
2023-05-24T12:27:48.296Z,90.87
2023-05-24T12:32:55.969Z,90.42
2023-05-24T12:38:03.518Z,90.38
2023-05-24T12:43:12.482Z,90.86
2023-05-24T12:48:20.475Z,89.58
2023-05-24T12:53:27.987Z,89.50
2023-05-24T12:58:35.598Z,89.02
2023-05-24T13:03:43.948Z,88.40
2023-05-24T13:08:51.649Z,87.84
2023-05-24T13:13:59.995Z,87.70
2023-05-24T13:19:07.328Z,87.69
2023-05-24T13:24:16.202Z,87.64
2023-05-24T13:34:35.468Z,87.60
2023-05-24T13:39:42.769Z,88.05
2023-05-24T13:44:50.511Z,87.89
2023-05-24T13:49:58.308Z,87.40
2023-05-24T13:55:07.944Z,87.01
2023-05-24T14:00:18.439Z,86.92
2023-05-24T14:18:58.133Z,85.13
2023-05-24T14:24:05.903Z,84.88
2023-05-24T14:29:13.689Z,85.12
2023-05-24T14:34:21.975Z,85.19
2023-05-24T14:39:29.751Z,85.19
2023-05-24T14:44:37.364Z,84.79
2023-05-24T14:49:45.077Z,85.16
2023-05-24T14:54:53.345Z,84.87
2023-05-24T15:00:03.986Z,84.96
2023-05-24T15:05:12.552Z,84.66
2023-05-24T15:10:20.458Z,84.94
2023-05-24T15:15:28.166Z,84.65
2023-05-24T15:20:36.728Z,84.46
2023-05-24T15:25:44.271Z,84.32
2023-05-24T15:30:52.370Z,84.17
2023-05-24T15:36:00.330Z,83.93
2023-05-24T15:41:08.252Z,84.26
2023-05-24T15:46:17.004Z,84.44
2023-05-24T15:52:01.864Z,84.28
2023-05-24T15:56:52.473Z,84.46
2023-05-24T16:02:00.254Z,84.48
2023-05-24T16:07:08.272Z,83.95
2023-05-24T16:12:15.932Z,83.98
2023-05-24T16:17:23.711Z,83.70
2023-05-24T16:22:31.584Z,83.87
2023-05-24T16:27:39.156Z,84.13
2023-05-24T16:32:46.750Z,84.50
2023-05-24T16:37:56.390Z,84.32
2023-05-24T16:43:04.148Z,84.15
2023-05-24T16:48:11.976Z,84.30
2023-05-24T16:53:20.724Z,84.45
2023-05-24T16:58:29.890Z,84.44
2023-05-24T17:03:38.080Z,84.65
2023-05-24T17:08:46.054Z,84.86
2023-05-24T17:13:53.679Z,84.82
2023-05-24T17:19:01.706Z,84.71
2023-05-24T17:24:09.323Z,84.53
2023-05-24T17:29:16.836Z,84.77
2023-05-24T17:34:24.226Z,85.25
2023-05-24T17:39:31.939Z,85.64
2023-05-24T17:44:39.659Z,85.28
2023-05-24T17:49:47.065Z,85.43
2023-05-24T17:54:56.822Z,85.47
2023-05-24T18:00:04.855Z,85.31
2023-05-24T18:05:13.291Z,85.48
2023-05-24T18:10:21.864Z,85.48
2023-05-24T18:15:29.265Z,85.52
2023-05-24T18:20:37.526Z,85.54
2023-05-24T18:25:46.443Z,85.86
2023-05-24T18:30:55.637Z,85.92
2023-05-24T18:36:04.752Z,85.99
2023-05-24T18:41:12.670Z,85.96
2023-05-24T18:46:20.316Z,86.42
2023-05-24T18:51:28.154Z,86.73
2023-05-24T18:56:36.042Z,86.66
2023-05-24T19:04:47.790Z,86.83
2023-05-24T19:09:52.556Z,86.84
2023-05-24T19:14:57.372Z,86.50
2023-05-24T19:20:02.850Z,86.43
2023-05-24T19:25:09.614Z,86.43
2023-05-24T19:30:16.921Z,86.36
2023-05-24T19:35:21.224Z,86.17
2023-05-24T19:40:25.540Z,86.23
2023-05-24T19:45:29.680Z,86.30
2023-05-24T19:50:34.097Z,85.28
2023-05-24T19:55:38.137Z,84.76
2023-05-24T20:00:43.296Z,84.75
2023-05-24T20:05:48.190Z,84.47
2023-05-24T20:10:53.580Z,84.76
2023-05-24T20:15:58.036Z,85.00
2023-05-24T20:21:02.797Z,85.10
2023-05-24T20:26:07.512Z,85.42
2023-05-24T20:31:12.334Z,85.50
2023-05-24T20:36:18.288Z,85.71
2023-05-24T20:41:23.040Z,85.69
2023-05-24T20:46:26.980Z,85.91
2023-05-24T20:51:31.295Z,85.79
2023-05-24T20:56:35.510Z,85.87
2023-05-24T21:01:39.627Z,85.87
2023-05-24T21:06:43.525Z,86.17
2023-05-24T21:11:47.613Z,86.10
2023-05-24T21:16:51.420Z,85.82
2023-05-24T21:21:55.444Z,85.74
2023-05-24T21:26:59.403Z,85.73
2023-05-24T21:32:03.501Z,85.49
2023-05-24T21:37:07.915Z,85.43
2023-05-24T21:42:11.903Z,85.03
2023-05-24T21:47:15.929Z,84.88
2023-05-24T21:57:09.702Z,85.24
2023-05-24T22:02:14.482Z,85.14
2023-05-24T22:07:19.129Z,85.12
2023-05-24T22:12:23.269Z,85.13
2023-05-24T22:17:28.744Z,85.36
2023-05-24T22:22:33.600Z,85.50
2023-05-24T22:27:38.437Z,85.46
2023-05-24T22:32:43.784Z,85.67
2023-05-24T22:37:47.806Z,85.88
2023-05-24T22:42:51.863Z,85.33
2023-05-24T22:47:57.969Z,85.43
2023-05-24T22:53:02.336Z,85.31
2023-05-24T22:58:06.660Z,85.45
2023-05-24T23:03:11.704Z,85.34
2023-05-24T23:08:17.369Z,85.43
2023-05-24T23:13:21.376Z,85.58
2023-05-24T23:18:26.417Z,85.83
2023-05-24T23:23:31.277Z,85.75
2023-05-24T23:28:36.052Z,85.99
2023-05-24T23:33:40.341Z,85.90
2023-05-24T23:38:44.584Z,86.27
2023-05-24T23:43:48.851Z,86.19
2023-05-24T23:48:53.034Z,86.12
2023-05-24T23:53:57.167Z,86.12
2023-05-24T23:59:02.825Z,86.41
